createdAt,value
2022-11-25T00:00:01.121Z,7.8
2022-11-25T00:01:01.703Z,7.8
2022-11-25T00:02:01.351Z,7.8
2022-11-25T00:03:01.967Z,7.8
2022-11-25T00:04:01.612Z,7.8
2022-11-25T00:05:01.092Z,7.9
2022-11-25T00:06:01.676Z,7.9
2022-11-25T00:07:01.277Z,8
2022-11-25T00:08:01.846Z,8
2022-11-25T00:09:01.454Z,8
2022-11-25T00:10:01.038Z,8
2022-11-25T00:11:01.624Z,8.1
2022-11-25T00:12:01.228Z,8.1
2022-11-25T00:13:01.780Z,8.1
2022-11-25T00:14:01.363Z,8.1
2022-11-25T00:15:00.934Z,8.1
2022-11-25T00:16:01.561Z,8.2
2022-11-25T00:17:01.223Z,8.2
2022-11-25T00:18:01.732Z,8.2
2022-11-25T00:19:01.315Z,8.2
2022-11-25T00:20:01.902Z,8.2
2022-11-25T00:21:01.483Z,8.2
2022-11-25T00:22:01.095Z,8.2
2022-11-25T00:23:01.671Z,8.3
2022-11-25T00:24:01.253Z,8.2
2022-11-25T00:25:01.854Z,8.2
2022-11-25T00:26:01.439Z,8.3
2022-11-25T00:27:01.034Z,8.3
2022-11-25T00:28:01.588Z,8.3
2022-11-25T00:29:01.173Z,8.3
2022-11-25T00:30:01.755Z,8.3
2022-11-25T00:31:01.333Z,8.3
2022-11-25T00:32:00.978Z,8.3
2022-11-25T00:33:01.517Z,8.2
2022-11-25T00:34:01.103Z,8.3
2022-11-25T00:35:01.693Z,8.3
2022-11-25T00:36:01.278Z,8.3
2022-11-25T00:37:01.859Z,8.3
2022-11-25T00:38:01.462Z,8.3
2022-11-25T00:39:01.047Z,8.3
2022-11-25T00:40:01.616Z,8.3
2022-11-25T00:41:01.224Z,8.3
2022-11-25T00:42:01.777Z,8.3
2022-11-25T00:43:01.387Z,8.3
2022-11-25T00:44:00.935Z,8.3
2022-11-25T00:45:01.511Z,8.3
2022-11-25T00:46:01.174Z,8.3
2022-11-25T00:47:01.668Z,8.4
2022-11-25T00:48:01.271Z,8.3
2022-11-25T00:49:01.825Z,8.3
2022-11-25T00:50:01.493Z,8.3
2022-11-25T00:51:00.984Z,8.3
2022-11-25T00:52:01.557Z,8.3
2022-11-25T00:53:01.159Z,8.4
2022-11-25T00:54:01.724Z,8.5
2022-11-25T00:55:01.326Z,8.5
2022-11-25T00:56:01.891Z,8.5
2022-11-25T00:57:01.496Z,8.5
2022-11-25T00:58:01.077Z,8.6
2022-11-25T00:59:01.654Z,8.6
2022-11-25T01:00:01.255Z,8.6
2022-11-25T01:01:01.925Z,8.7
2022-11-25T01:02:01.524Z,8.7
2022-11-25T01:03:01.059Z,8.7
2022-11-25T01:04:01.631Z,8.7
2022-11-25T01:05:01.228Z,8.7
2022-11-25T01:06:01.798Z,8.8
2022-11-25T01:07:01.383Z,8.8
2022-11-25T01:08:00.958Z,8.7
2022-11-25T01:09:01.546Z,8.8
2022-11-25T01:10:01.151Z,8.8
2022-11-25T01:11:01.718Z,8.8
2022-11-25T01:12:01.300Z,8.8
2022-11-25T01:13:01.909Z,8.8
2022-11-25T01:14:01.880Z,8.8
2022-11-25T01:15:01.128Z,8.8
2022-11-25T01:16:01.759Z,8.8
2022-11-25T01:17:01.371Z,8.8
2022-11-25T01:18:00.936Z,8.8
2022-11-25T01:19:01.503Z,8.9
2022-11-25T01:20:01.084Z,8.9
2022-11-25T01:21:01.667Z,8.9
2022-11-25T01:22:01.269Z,8.9
2022-11-25T01:23:01.822Z,8.9
2022-11-25T01:24:01.403Z,8.9
2022-11-25T01:25:00.978Z,8.8
2022-11-25T01:26:01.548Z,8.9
2022-11-25T01:27:01.146Z,8.9
2022-11-25T01:28:01.702Z,8.8
2022-11-25T01:29:01.310Z,8.8
2022-11-25T01:30:01.872Z,8.8
2022-11-25T01:31:01.454Z,8.8
2022-11-25T01:32:01.145Z,8.8
2022-11-25T01:33:01.609Z,8.8
2022-11-25T01:34:01.193Z,8.8
2022-11-25T01:35:01.771Z,8.8
2022-11-25T01:36:01.356Z,8.7
2022-11-25T01:37:00.955Z,8.7
2022-11-25T01:38:01.514Z,8.7
2022-11-25T01:39:01.095Z,8.6
2022-11-25T01:40:01.677Z,8.7
2022-11-25T01:41:01.282Z,8.6
2022-11-25T01:42:01.877Z,8.6
2022-11-25T01:43:01.477Z,8.6
2022-11-25T01:44:01.056Z,8.6
2022-11-25T01:45:01.661Z,8.6
2022-11-25T01:46:01.305Z,8.6
2022-11-25T01:47:01.826Z,8.6
2022-11-25T01:48:01.425Z,8.6
2022-11-25T01:49:00.980Z,8.6
2022-11-25T01:50:01.551Z,8.5
2022-11-25T01:51:01.212Z,8.6
2022-11-25T01:52:01.707Z,8.6
2022-11-25T01:53:01.309Z,8.5
2022-11-25T01:54:01.862Z,8.5
2022-11-25T01:55:01.445Z,8.5
2022-11-25T01:56:01.032Z,8.5
2022-11-25T01:57:01.614Z,8.5
2022-11-25T01:58:01.217Z,8.5
2022-11-25T01:59:01.783Z,8.5
2022-11-25T02:00:01.361Z,8.5
2022-11-25T02:01:01.017Z,8.5
2022-11-25T02:02:01.530Z,8.5
2022-11-25T02:03:01.166Z,8.5
2022-11-25T02:04:01.726Z,8.5
2022-11-25T02:05:01.310Z,8.6
2022-11-25T02:06:01.886Z,8.5
2022-11-25T02:07:01.471Z,8.5
2022-11-25T02:08:01.071Z,8.5
2022-11-25T02:09:01.638Z,8.5
2022-11-25T02:10:01.224Z,8.5
2022-11-25T02:11:01.807Z,8.5
2022-11-25T02:12:01.388Z,8.5
2022-11-25T02:13:00.981Z,8.5
2022-11-25T02:14:01.537Z,8.5
2022-11-25T02:15:01.119Z,8.5
2022-11-25T02:16:01.723Z,8.5
2022-11-25T02:17:01.393Z,8.5
2022-11-25T02:18:00.931Z,8.6
2022-11-25T02:19:01.497Z,8.5
2022-11-25T02:20:01.080Z,8.5
2022-11-25T02:21:01.665Z,8.4
2022-11-25T02:22:01.251Z,8.5
2022-11-25T02:23:01.841Z,8.5
2022-11-25T02:24:01.424Z,8.5
2022-11-25T02:25:01.006Z,8.5
2022-11-25T02:26:01.584Z,8.5
2022-11-25T02:27:01.169Z,8.5
2022-11-25T02:28:01.763Z,8.5
2022-11-25T02:29:01.343Z,8.5
2022-11-25T02:30:00.916Z,8.5
2022-11-25T02:31:01.486Z,8.4
2022-11-25T02:32:01.157Z,8.5
2022-11-25T02:33:01.697Z,8.4
2022-11-25T02:34:01.282Z,8.5
2022-11-25T02:35:01.865Z,8.4
2022-11-25T02:36:01.446Z,8.5
2022-11-25T02:37:01.028Z,8.4
2022-11-25T02:38:01.631Z,8.4
2022-11-25T02:39:01.211Z,8.3
2022-11-25T02:40:01.797Z,8.4
2022-11-25T02:41:01.380Z,8.4
2022-11-25T02:42:00.949Z,8.3
2022-11-25T02:43:01.552Z,8.4
2022-11-25T02:44:01.138Z,8.4
2022-11-25T02:45:01.725Z,8.4
2022-11-25T02:46:01.383Z,8.4
2022-11-25T02:47:01.893Z,8.4
2022-11-25T02:48:01.491Z,8.4
2022-11-25T02:49:09.830Z,8.5
2022-11-25T02:50:01.648Z,8.4
2022-11-25T02:51:01.309Z,8.4
2022-11-25T02:52:01.803Z,8.4
2022-11-25T02:53:01.384Z,8.5
2022-11-25T02:54:00.975Z,8.5
2022-11-25T02:55:01.548Z,8.5
2022-11-25T02:56:01.140Z,8.5
2022-11-25T02:57:01.722Z,8.5
2022-11-25T02:58:01.306Z,8.5
2022-11-25T02:59:01.899Z,8.5
2022-11-25T03:00:01.480Z,8.6
2022-11-25T03:01:01.150Z,8.6
2022-11-25T03:02:01.664Z,8.6
2022-11-25T03:03:01.285Z,8.7
2022-11-25T03:04:01.899Z,8.7
2022-11-25T03:05:01.508Z,8.7
2022-11-25T03:06:01.094Z,8.8
2022-11-25T03:07:01.675Z,8.8
2022-11-25T03:08:01.256Z,8.8
2022-11-25T03:09:01.863Z,8.8
2022-11-25T03:10:01.449Z,8.8
2022-11-25T03:11:01.019Z,8.8
2022-11-25T03:12:01.591Z,8.8
2022-11-25T03:13:01.175Z,8.9
2022-11-25T03:14:01.770Z,8.8
2022-11-25T03:15:01.355Z,8.8
2022-11-25T03:16:00.944Z,8.8
2022-11-25T03:17:01.551Z,8.8
2022-11-25T03:18:01.148Z,8.8
2022-11-25T03:19:01.750Z,8.8
2022-11-25T03:20:01.333Z,8.8
2022-11-25T03:21:00.961Z,8.8
2022-11-25T03:22:01.493Z,8.8
2022-11-25T03:23:01.073Z,8.8
2022-11-25T03:24:01.648Z,8.9
2022-11-25T03:25:01.250Z,8.8
2022-11-25T03:26:01.801Z,8.8
2022-11-25T03:27:01.382Z,8.8
2022-11-25T03:28:00.957Z,8.8
2022-11-25T03:29:01.528Z,8.9
2022-11-25T03:30:01.128Z,8.9
2022-11-25T03:31:01.713Z,8.9
2022-11-25T03:32:04.241Z,8.9
2022-11-25T03:33:01.839Z,8.9
2022-11-25T03:34:01.420Z,8.9
2022-11-25T03:35:00.999Z,8.9
2022-11-25T03:36:01.594Z,8.9
2022-11-25T03:37:01.283Z,8.9
2022-11-25T03:38:01.760Z,8.8
2022-11-25T03:39:01.343Z,8.8
2022-11-25T03:40:00.913Z,8.8
2022-11-25T03:41:01.518Z,8.7
2022-11-25T03:42:01.100Z,8.8
2022-11-25T03:43:01.677Z,8.7
2022-11-25T03:44:01.269Z,8.8
2022-11-25T03:45:01.835Z,8.8
2022-11-25T03:46:01.461Z,8.8
2022-11-25T03:47:01.051Z,8.8
2022-11-25T03:48:01.652Z,8.8
2022-11-25T03:49:01.240Z,8.8
2022-11-25T03:50:01.822Z,8.8
2022-11-25T03:51:01.406Z,8.8
2022-11-25T03:52:01.075Z,8.8
2022-11-25T03:53:01.609Z,8.8
2022-11-25T03:54:01.194Z,8.9
2022-11-25T03:55:01.770Z,8.9
2022-11-25T03:56:01.353Z,8.9
2022-11-25T03:57:00.933Z,8.9
2022-11-25T03:58:01.546Z,9
2022-11-25T03:59:01.132Z,9
2022-11-25T04:00:01.703Z,9
2022-11-25T04:01:01.345Z,9
2022-11-25T04:02:01.945Z,8.9
2022-11-25T04:03:01.590Z,8.9
2022-11-25T04:04:01.109Z,8.9
2022-11-25T04:05:01.678Z,9
2022-11-25T04:06:01.258Z,9
2022-11-25T04:07:01.831Z,9
2022-11-25T04:08:01.470Z,9
2022-11-25T04:09:01.202Z,9
2022-11-25T04:10:01.638Z,9
2022-11-25T04:11:01.224Z,9.1
2022-11-25T04:12:01.790Z,9
2022-11-25T04:13:01.397Z,9.1
2022-11-25T04:14:00.944Z,9.1
2022-11-25T04:15:01.525Z,9.1
2022-11-25T04:16:01.132Z,9.1
2022-11-25T04:17:01.730Z,9
2022-11-25T04:18:01.338Z,9
2022-11-25T04:19:00.908Z,9.1
2022-11-25T04:20:01.486Z,9.1
2022-11-25T04:21:01.091Z,9.1
2022-11-25T04:22:01.656Z,9.1
2022-11-25T04:23:01.241Z,9.1
2022-11-25T04:24:01.823Z,9.1
2022-11-25T04:25:01.432Z,9.1
2022-11-25T04:26:01.002Z,9.2
2022-11-25T04:27:01.569Z,9.1
2022-11-25T04:28:01.147Z,9.1
2022-11-25T04:29:01.723Z,9.1
2022-11-25T04:30:01.308Z,9.1
2022-11-25T04:31:01.935Z,9.2
2022-11-25T04:32:01.542Z,9.1
2022-11-25T04:33:01.140Z,9.1
2022-11-25T04:34:01.693Z,9.2
2022-11-25T04:35:01.277Z,9.2
2022-11-25T04:36:01.854Z,9.3
2022-11-25T04:37:01.442Z,9.3
2022-11-25T04:38:01.048Z,9.2
2022-11-25T04:39:01.613Z,9.3
2022-11-25T04:40:01.195Z,9.2
2022-11-25T04:41:01.804Z,9.2
2022-11-25T04:42:01.393Z,9.2
2022-11-25T04:43:04.807Z,9.2
2022-11-25T04:44:01.523Z,9.2
2022-11-25T04:45:21.819Z,9.2
2022-11-25T04:46:17.164Z,9.2
2022-11-25T04:47:01.220Z,9.2
2022-11-25T04:48:01.852Z,9.2
2022-11-25T04:49:01.436Z,9.2
2022-11-25T04:50:01.017Z,9.2
2022-11-25T04:51:01.599Z,9.2
2022-11-25T04:52:01.180Z,9.1
2022-11-25T04:53:01.901Z,9.1
2022-11-25T04:54:01.410Z,9.1
2022-11-25T04:55:00.983Z,9.1
2022-11-25T04:56:01.559Z,9
2022-11-25T04:57:01.165Z,9.1
2022-11-25T04:58:01.749Z,9.1
2022-11-25T04:59:01.332Z,9.1
2022-11-25T05:00:01.903Z,9
2022-11-25T05:01:01.516Z,9
2022-11-25T05:02:01.124Z,9
2022-11-25T05:03:01.706Z,8.9
2022-11-25T05:04:01.310Z,9
2022-11-25T05:05:01.893Z,8.9
2022-11-25T05:06:01.475Z,8.8
2022-11-25T05:07:01.060Z,8.8
2022-11-25T05:08:01.664Z,8.8
2022-11-25T05:09:01.246Z,8.8
2022-11-25T05:10:01.819Z,8.8
2022-11-25T05:11:01.404Z,8.8
2022-11-25T05:12:00.985Z,8.8
2022-11-25T05:13:01.604Z,8.7
2022-11-25T05:14:01.185Z,8.8
2022-11-25T05:15:01.761Z,8.7
2022-11-25T05:16:01.344Z,8.7
2022-11-25T05:17:00.973Z,8.7
2022-11-25T05:18:01.532Z,8.7
2022-11-25T05:19:01.110Z,8.7
2022-11-25T05:20:01.684Z,8.7
2022-11-25T05:21:01.264Z,8.7
2022-11-25T05:22:01.840Z,8.6
2022-11-25T05:23:01.443Z,8.7
2022-11-25T05:24:01.027Z,8.6
2022-11-25T05:25:01.618Z,8.7
2022-11-25T05:26:01.203Z,8.7
2022-11-25T05:27:01.776Z,8.7
2022-11-25T05:28:01.359Z,8.7
2022-11-25T05:29:00.956Z,8.7
2022-11-25T05:30:01.532Z,8.7
2022-11-25T05:31:01.153Z,8.7
2022-11-25T05:32:01.698Z,8.7
2022-11-25T05:33:01.280Z,8.7
2022-11-25T05:34:01.856Z,8.8
2022-11-25T05:35:01.462Z,8.7
2022-11-25T05:36:01.048Z,8.7
2022-11-25T05:37:01.630Z,8.7
2022-11-25T05:38:01.218Z,8.7
2022-11-25T05:39:01.786Z,8.7
2022-11-25T05:40:01.373Z,8.7
2022-11-25T05:41:01.059Z,8.7
2022-11-25T05:42:01.531Z,8.7
2022-11-25T05:43:01.114Z,8.7
2022-11-25T05:44:01.694Z,8.6
2022-11-25T05:45:01.301Z,8.5
2022-11-25T05:46:01.892Z,8.5
2022-11-25T05:47:01.512Z,8.5
2022-11-25T05:48:01.101Z,8.5
2022-11-25T05:49:01.672Z,8.5
2022-11-25T05:50:01.260Z,8.5
2022-11-25T05:51:01.853Z,8.5
2022-11-25T05:52:01.445Z,8.4
2022-11-25T05:53:01.122Z,8.4
2022-11-25T05:54:01.616Z,8.4
2022-11-25T05:55:01.199Z,8.3
2022-11-25T05:56:01.802Z,8.3
2022-11-25T05:57:01.387Z,8.4
2022-11-25T05:58:00.978Z,8.3
2022-11-25T05:59:01.537Z,8.3
2022-11-25T06:00:01.117Z,8.3
2022-11-25T06:01:01.726Z,8.3
2022-11-25T06:02:01.359Z,8.3
2022-11-25T06:03:01.986Z,8.3
2022-11-25T06:04:01.658Z,8.3
2022-11-25T06:05:01.118Z,8.3
2022-11-25T06:06:01.701Z,8.3
2022-11-25T06:07:01.310Z,8.3
2022-11-25T06:08:01.857Z,8.3
2022-11-25T06:09:01.440Z,8.3
2022-11-25T06:10:03.203Z,8.3
2022-11-25T06:11:01.559Z,8.3
2022-11-25T06:12:01.158Z,8.2
2022-11-25T06:13:01.731Z,8.3
2022-11-25T06:14:01.312Z,8.3
2022-11-25T06:15:01.895Z,8.3
2022-11-25T06:16:07.510Z,8.2
2022-11-25T06:17:01.041Z,8.2
2022-11-25T06:18:01.641Z,8.2
2022-11-25T06:19:01.221Z,8.2
2022-11-25T06:20:01.823Z,8.2
2022-11-25T06:21:01.414Z,8.2
2022-11-25T06:22:00.990Z,8.2
2022-11-25T06:23:01.575Z,8.3
2022-11-25T06:24:01.183Z,8.2
2022-11-25T06:25:03.773Z,8.2
2022-11-25T06:26:01.273Z,8.2
2022-11-25T06:27:01.855Z,8.1
2022-11-25T06:28:16.766Z,8.2
2022-11-25T06:29:00.999Z,8.1
2022-11-25T06:30:01.580Z,8.1
2022-11-25T06:31:01.202Z,8.1
2022-11-25T06:32:01.737Z,8.1
2022-11-25T06:33:01.355Z,8.1
2022-11-25T06:34:01.912Z,8.1
2022-11-25T06:35:01.494Z,8.1
2022-11-25T06:36:01.096Z,8.1
2022-11-25T06:37:01.660Z,8.1
2022-11-25T06:38:01.247Z,8.1
2022-11-25T06:39:01.832Z,8.1
2022-11-25T06:40:01.434Z,8.1
2022-11-25T06:41:01.019Z,8.1
2022-11-25T06:42:01.589Z,8.2
2022-11-25T06:43:01.172Z,8.2
2022-11-25T06:44:01.781Z,8.1
2022-11-25T06:45:01.361Z,8.2
2022-11-25T06:46:01.004Z,8.2
2022-11-25T06:47:01.520Z,8.1
2022-11-25T06:48:01.104Z,8.2
2022-11-25T06:49:01.698Z,8.2
2022-11-25T06:50:01.299Z,8.2
2022-11-25T06:51:01.871Z,8.1
2022-11-25T06:52:01.455Z,8.2
2022-11-25T06:53:01.037Z,8.2
2022-11-25T06:54:01.683Z,8.2
2022-11-25T06:55:01.274Z,8.1
2022-11-25T06:56:01.833Z,8.1
2022-11-25T06:57:01.419Z,8.1
2022-11-25T06:58:20.478Z,8.2
2022-11-25T06:59:01.527Z,8.2
2022-11-25T07:00:01.132Z,8.1
2022-11-25T07:01:01.689Z,8.1
2022-11-25T07:02:01.374Z,8.1
2022-11-25T07:03:01.895Z,8.1
2022-11-25T07:04:01.517Z,8.1
2022-11-25T07:05:01.135Z,8.1
2022-11-25T07:06:01.675Z,8.1
2022-11-25T07:07:01.297Z,8.2
2022-11-25T07:08:01.876Z,8.2
2022-11-25T07:09:01.457Z,8.2
2022-11-25T07:10:01.053Z,8.2
2022-11-25T07:11:01.645Z,8.1
2022-11-25T07:12:01.225Z,8.1
2022-11-25T07:13:01.800Z,8.1
2022-11-25T07:14:01.387Z,8.2
2022-11-25T07:15:00.967Z,8.1
2022-11-25T07:16:01.650Z,8.1
2022-11-25T07:17:01.194Z,8.2
2022-11-25T07:18:01.767Z,8.2
2022-11-25T07:19:01.349Z,8.1
2022-11-25T07:20:00.928Z,8.2
2022-11-25T07:21:01.543Z,8.2
2022-11-25T07:22:01.124Z,8.2
2022-11-25T07:23:01.701Z,8.2
2022-11-25T07:24:01.291Z,8.1
2022-11-25T07:25:01.870Z,8.2
2022-11-25T07:26:01.476Z,8.2
2022-11-25T07:27:01.076Z,8.2
2022-11-25T07:28:01.640Z,8.2
2022-11-25T07:29:01.222Z,8.2
2022-11-25T07:32:05.778Z,8.1
2022-11-25T07:33:01.481Z,8
2022-11-25T07:34:01.103Z,8
2022-11-25T07:35:01.672Z,8
2022-11-25T07:36:01.254Z,7.8
2022-11-25T07:37:01.882Z,7.8
2022-11-25T07:38:01.476Z,7.8
2022-11-25T07:39:01.067Z,7.8
2022-11-25T07:40:01.641Z,7.8
2022-11-25T07:41:01.227Z,7.8
2022-11-25T07:42:01.833Z,7.8
2022-11-25T07:43:01.420Z,7.8
2022-11-25T07:44:00.996Z,7.8
2022-11-25T07:45:01.586Z,7.9
2022-11-25T07:46:01.229Z,7.9
2022-11-25T07:47:01.774Z,7.9
2022-11-25T07:48:01.393Z,8
2022-11-25T07:49:00.956Z,8
2022-11-25T07:50:01.527Z,8
2022-11-25T07:51:01.107Z,8
2022-11-25T07:52:01.691Z,8.1
2022-11-25T07:53:01.320Z,8.2
2022-11-25T07:54:01.862Z,8.2
2022-11-25T07:55:01.532Z,8.2
2022-11-25T07:56:01.107Z,8.2
2022-11-25T07:57:01.697Z,8.2
2022-11-25T07:58:01.295Z,8.2
2022-11-25T07:59:01.853Z,8.2
2022-11-25T08:00:01.435Z,8.2
2022-11-25T08:01:01.022Z,8.3
2022-11-25T08:02:01.697Z,8.2
2022-11-25T08:03:01.319Z,8.3
2022-11-25T08:04:01.820Z,8.3
2022-11-25T08:05:01.408Z,8.3
2022-11-25T08:06:00.989Z,8.3
2022-11-25T08:07:01.581Z,8.3
2022-11-25T08:08:01.207Z,8.3
2022-11-25T08:09:01.790Z,8.3
2022-11-25T08:10:01.374Z,8.4
2022-11-25T08:11:00.947Z,8.4
2022-11-25T08:12:01.550Z,8.4
2022-11-25T08:13:01.133Z,8.3
2022-11-25T08:14:01.720Z,8.4
2022-11-25T08:15:01.318Z,8.4
2022-11-25T08:16:01.946Z,8.4
2022-11-25T08:17:01.605Z,8.4
2022-11-25T08:18:01.104Z,8.4
2022-11-25T08:19:01.677Z,8.5
2022-11-25T08:20:01.257Z,8.5
2022-11-25T08:21:01.860Z,8.4
2022-11-25T08:22:01.449Z,8.5
2022-11-25T08:23:01.043Z,8.5
2022-11-25T08:24:01.595Z,8.5
2022-11-25T08:25:01.230Z,8.5
2022-11-25T08:26:01.765Z,8.5
2022-11-25T08:27:01.356Z,8.5
2022-11-25T08:28:00.930Z,8.5
2022-11-25T08:29:01.514Z,8.5
2022-11-25T08:30:01.114Z,8.5
2022-11-25T08:31:01.718Z,8.6
2022-11-25T08:32:01.328Z,8.6
2022-11-25T08:33:01.929Z,8.7
2022-11-25T08:34:01.513Z,8.7
2022-11-25T08:35:01.097Z,8.7
2022-11-25T08:36:01.673Z,8.8
2022-11-25T08:37:01.258Z,8.9
2022-11-25T08:38:01.853Z,8.9
2022-11-25T08:39:01.434Z,8.9
2022-11-25T08:40:01.334Z,9
2022-11-25T08:41:01.625Z,9
2022-11-25T08:42:01.225Z,9
2022-11-25T08:43:01.813Z,9.1
2022-11-25T08:44:01.397Z,9
2022-11-25T08:45:00.982Z,9
2022-11-25T08:46:01.588Z,8.9
2022-11-25T08:47:01.275Z,8.9
2022-11-25T08:48:01.785Z,8.9
2022-11-25T08:49:01.369Z,8.9
2022-11-25T08:50:00.949Z,8.9
2022-11-25T08:51:01.525Z,8.8
2022-11-25T08:52:01.112Z,8.7
2022-11-25T08:53:01.713Z,8.8
2022-11-25T08:54:01.317Z,8.7
2022-11-25T08:55:00.960Z,8.8
2022-11-25T08:56:01.454Z,8.8
2022-11-25T08:57:01.066Z,8.8
2022-11-25T08:58:01.627Z,8.8
2022-11-25T08:59:01.231Z,8.8
2022-11-25T09:00:01.785Z,8.8
2022-11-25T09:01:01.365Z,8.9
2022-11-25T09:02:01.086Z,8.8
2022-11-25T09:03:04.192Z,8.9
2022-11-25T09:04:01.083Z,8.9
2022-11-25T09:05:01.668Z,8.9
2022-11-25T09:06:01.253Z,8.9
2022-11-25T09:07:01.840Z,9
2022-11-25T09:08:01.478Z,9
2022-11-25T09:09:01.035Z,9.1
2022-11-25T09:10:01.592Z,9.1
2022-11-25T09:11:01.294Z,9.2
2022-11-25T09:12:01.784Z,9.2
2022-11-25T09:13:01.402Z,9.2
2022-11-25T09:14:01.035Z,9.3
2022-11-25T09:15:01.530Z,9.2
2022-11-25T09:16:01.224Z,9.3
2022-11-25T09:17:01.701Z,9.3
2022-11-25T09:18:01.303Z,9.3
2022-11-25T09:19:01.880Z,9.3
2022-11-25T09:20:01.465Z,9.2
2022-11-25T09:21:01.051Z,9.3
2022-11-25T09:22:01.620Z,9.3
2022-11-25T09:23:01.205Z,9.4
2022-11-25T09:24:01.815Z,9.4
2022-11-25T09:25:01.426Z,9.3
2022-11-25T09:26:00.996Z,9.3
2022-11-25T09:27:01.567Z,9.4
2022-11-25T09:28:01.169Z,9.4
2022-11-25T09:29:01.763Z,9.4
2022-11-25T09:30:01.364Z,9.5
2022-11-25T09:31:00.971Z,9.5
2022-11-25T09:32:01.582Z,9.5
2022-11-25T09:33:01.173Z,9.6
2022-11-25T09:34:01.746Z,9.6
2022-11-25T09:35:01.350Z,9.6
2022-11-25T09:36:00.921Z,9.6
2022-11-25T09:37:01.509Z,9.7
2022-11-25T09:38:01.098Z,9.8
2022-11-25T09:39:01.669Z,9.8
2022-11-25T09:40:01.275Z,9.8
2022-11-25T09:41:01.830Z,9.8
2022-11-25T09:42:01.425Z,9.9
2022-11-25T09:43:01.009Z,9.8
2022-11-25T09:44:01.582Z,9.9
2022-11-25T09:45:01.216Z,9.9
2022-11-25T09:46:01.813Z,10
2022-11-25T09:47:01.399Z,9.9
2022-11-25T09:48:00.989Z,10
2022-11-25T09:49:01.570Z,10.1
2022-11-25T09:50:01.173Z,10
2022-11-25T09:51:01.739Z,10.1
2022-11-25T09:52:01.327Z,10
2022-11-25T09:53:01.908Z,10
2022-11-25T09:54:01.489Z,10
2022-11-25T09:55:01.093Z,10
2022-11-25T09:56:01.873Z,10.1
2022-11-25T09:57:01.307Z,10.1
2022-11-25T09:58:01.883Z,10.1
2022-11-25T09:59:01.483Z,10.2
2022-11-25T10:00:01.072Z,10.2
2022-11-25T10:01:01.680Z,10.2
2022-11-25T10:02:01.358Z,10.2
2022-11-25T10:03:01.971Z,10.2
2022-11-25T10:04:01.621Z,10.2
2022-11-25T10:05:01.092Z,10.2
2022-11-25T10:06:01.738Z,10.3
2022-11-25T10:07:01.430Z,10.2
2022-11-25T10:08:01.907Z,10.2
2022-11-25T10:09:01.490Z,10.2
2022-11-25T10:10:01.072Z,10.3
2022-11-25T10:11:01.678Z,10.3
2022-11-25T10:12:01.279Z,10.3
2022-11-25T10:13:01.847Z,10.3
2022-11-25T10:14:01.433Z,10.3
2022-11-25T10:15:01.019Z,10.3
2022-11-25T10:16:01.671Z,10.3
2022-11-25T10:17:01.302Z,10.2
2022-11-25T10:18:01.835Z,10.2
2022-11-25T10:19:01.420Z,10.2
2022-11-25T10:20:01.009Z,10.1
2022-11-25T10:21:01.589Z,10.1
2022-11-25T10:22:01.192Z,10.1
2022-11-25T10:23:01.761Z,10.1
2022-11-25T10:24:01.348Z,10.2
2022-11-25T10:25:00.926Z,10.2
2022-11-25T10:26:01.506Z,10.2
2022-11-25T10:27:01.107Z,10.1
2022-11-25T10:28:01.674Z,10.1
2022-11-25T10:29:01.266Z,10
2022-11-25T10:30:01.830Z,10.1
2022-11-25T10:31:01.443Z,10.2
2022-11-25T10:32:01.015Z,10.2
2022-11-25T10:33:02.595Z,10.2
2022-11-25T10:34:01.301Z,10.3
2022-11-25T10:35:01.810Z,10.3
2022-11-25T10:36:01.392Z,10.3
2022-11-25T10:37:00.966Z,10.4
2022-11-25T10:38:01.565Z,10.3
2022-11-25T10:39:01.149Z,10.3
2022-11-25T10:40:01.723Z,10.2
2022-11-25T10:41:01.306Z,10.3
2022-11-25T10:42:01.899Z,10.3
2022-11-25T10:43:01.499Z,10.4
2022-11-25T10:44:01.081Z,10.4
2022-11-25T10:45:01.661Z,10.5
2022-11-25T10:46:01.244Z,10.4
2022-11-25T10:47:17.044Z,10.3
2022-11-25T10:48:01.392Z,10.3
2022-11-25T10:49:01.004Z,10.3
2022-11-25T10:50:01.565Z,10.3
2022-11-25T10:51:01.150Z,10.3
2022-11-25T10:52:01.746Z,10.3
2022-11-25T10:53:01.345Z,10.3
2022-11-25T10:54:01.914Z,10.3
2022-11-25T10:55:01.510Z,10.2
2022-11-25T10:56:01.186Z,10.1
2022-11-25T10:57:01.684Z,10.1
2022-11-25T10:58:01.299Z,10.1
2022-11-25T10:59:01.852Z,10.1
2022-11-25T11:00:01.432Z,10.2
2022-11-25T11:01:01.017Z,10.2
2022-11-25T11:02:01.674Z,10.3
2022-11-25T11:03:01.312Z,10.2
2022-11-25T11:04:01.840Z,10.2
2022-11-25T11:05:01.443Z,10.2
2022-11-25T11:06:01.007Z,10.3
2022-11-25T11:07:01.579Z,10.3
2022-11-25T11:08:01.179Z,10.3
2022-11-25T11:09:01.763Z,10.4
2022-11-25T11:10:01.347Z,10.4
2022-11-25T11:11:00.931Z,10.4
2022-11-25T11:12:01.513Z,10.5
2022-11-25T11:13:01.095Z,10.4
2022-11-25T11:14:01.699Z,10.4
2022-11-25T11:15:01.281Z,10.5
2022-11-25T11:16:01.947Z,10.6
2022-11-25T11:17:01.599Z,10.6
2022-11-25T11:18:01.103Z,10.6
2022-11-25T11:19:01.709Z,10.7
2022-11-25T11:20:01.298Z,10.7
2022-11-25T11:21:01.888Z,10.7
2022-11-25T11:22:01.473Z,10.6
2022-11-25T11:23:04.253Z,10.6
2022-11-25T11:24:01.612Z,10.7
2022-11-25T11:25:01.194Z,10.8
2022-11-25T11:26:01.797Z,10.8
2022-11-25T11:27:01.386Z,10.7
2022-11-25T11:28:00.967Z,10.6
2022-11-25T11:29:01.548Z,10.6
2022-11-25T11:30:01.131Z,10.7
2022-11-25T11:31:01.766Z,10.6
2022-11-25T11:32:01.348Z,10.7
2022-11-25T11:33:00.928Z,10.7
2022-11-25T11:34:01.497Z,10.5
2022-11-25T11:35:01.100Z,10.7
2022-11-25T11:36:01.664Z,10.6
2022-11-25T11:37:01.270Z,10.6
2022-11-25T11:38:01.830Z,10.7
2022-11-25T11:39:01.439Z,10.8
2022-11-25T11:40:00.999Z,10.8
2022-11-25T11:41:01.584Z,10.8
2022-11-25T11:42:01.166Z,10.8
2022-11-25T11:43:01.750Z,10.7
2022-11-25T11:44:01.349Z,10.7
2022-11-25T11:45:01.918Z,10.6
2022-11-25T11:46:01.517Z,10.6
2022-11-25T11:47:01.195Z,10.6
2022-11-25T11:48:01.684Z,10.6
2022-11-25T11:49:01.339Z,10.6
2022-11-25T11:50:01.913Z,10.6
2022-11-25T11:51:01.517Z,10.6
2022-11-25T11:52:01.098Z,10.5
2022-11-25T11:53:01.711Z,10.5
2022-11-25T11:54:01.306Z,10.5
2022-11-25T11:55:01.888Z,10.6
2022-11-25T11:56:27.294Z,10.6
2022-11-25T11:57:01.094Z,10.7
2022-11-25T11:58:01.679Z,10.8
2022-11-25T11:59:01.264Z,10.8
2022-11-25T12:00:01.850Z,10.8
2022-11-25T12:01:01.454Z,10.9
2022-11-25T12:02:01.134Z,10.9
2022-11-25T12:03:01.700Z,11
2022-11-25T12:04:01.270Z,11.1
2022-11-25T12:05:01.851Z,10.9
2022-11-25T12:06:01.437Z,11
2022-11-25T12:07:01.060Z,10.9
2022-11-25T12:08:01.711Z,10.9
2022-11-25T12:09:01.318Z,11
2022-11-25T12:10:01.846Z,11
2022-11-25T12:11:01.424Z,11
2022-11-25T12:12:01.018Z,11.1
2022-11-25T12:13:01.590Z,11
2022-11-25T12:14:01.422Z,11.1
2022-11-25T12:15:01.758Z,11.1
2022-11-25T12:16:01.422Z,11.1
2022-11-25T12:17:00.946Z,11.1
2022-11-25T12:18:01.511Z,11.1
2022-11-25T12:19:01.093Z,11.1
2022-11-25T12:20:01.675Z,11.1
2022-11-25T12:21:01.257Z,11
2022-11-25T12:22:01.853Z,11
2022-11-25T12:23:01.458Z,11
2022-11-25T12:24:01.011Z,11.1
2022-11-25T12:25:01.607Z,11.1
2022-11-25T12:26:01.189Z,11.1
2022-11-25T12:27:01.777Z,11.1
2022-11-25T12:28:01.391Z,11.3
2022-11-25T12:29:00.949Z,11.2
2022-11-25T12:30:01.529Z,11.3
2022-11-25T12:31:04.868Z,11.4
2022-11-25T12:32:01.712Z,11.4
2022-11-25T12:33:01.340Z,11.4
2022-11-25T12:34:01.891Z,11.4
2022-11-25T12:35:01.477Z,11.3
2022-11-25T12:36:01.065Z,11.2
2022-11-25T12:37:01.653Z,11.1
2022-11-25T12:38:01.254Z,11.2
2022-11-25T12:39:01.823Z,11.3
2022-11-25T12:40:01.409Z,11.4
2022-11-25T12:41:01.015Z,11.6
2022-11-25T12:42:01.579Z,11.7
2022-11-25T12:43:01.181Z,11.7
2022-11-25T12:44:01.766Z,11.6
2022-11-25T12:45:01.349Z,11.6
2022-11-25T12:46:00.964Z,11.5
2022-11-25T12:47:01.519Z,11.5
2022-11-25T12:48:01.102Z,11.4
2022-11-25T12:49:01.702Z,11.5
2022-11-25T12:50:01.283Z,11.5
2022-11-25T12:51:01.860Z,11.5
2022-11-25T12:52:01.443Z,11.6
2022-11-25T12:53:01.026Z,11.5
2022-11-25T12:54:01.632Z,11.5
2022-11-25T12:55:01.215Z,11.5
2022-11-25T12:56:01.807Z,11.5
2022-11-25T12:57:01.424Z,11.5
2022-11-25T12:58:01.039Z,11.5
2022-11-25T12:59:01.598Z,11.4
2022-11-25T13:00:25.385Z,11.4
2022-11-25T13:01:01.806Z,11.3
2022-11-25T13:02:01.537Z,11.3
2022-11-25T13:03:01.024Z,11.3
2022-11-25T13:04:01.625Z,11.3
2022-11-25T13:05:18.780Z,11.3
2022-11-25T13:06:01.773Z,11.2
2022-11-25T13:07:01.359Z,11.2
2022-11-25T13:08:00.942Z,11.1
2022-11-25T13:09:01.525Z,11
2022-11-25T13:10:01.129Z,11
2022-11-25T13:11:01.924Z,11
2022-11-25T13:12:01.617Z,11.1
2022-11-25T13:13:01.277Z,11
2022-11-25T13:14:01.322Z,11
2022-11-25T13:15:01.599Z,11.1
2022-11-25T13:16:01.663Z,11.2
2022-11-25T13:17:01.754Z,11.2
2022-11-25T13:18:01.882Z,11.1
2022-11-25T13:19:01.490Z,11.1
2022-11-25T13:20:01.092Z,11.2
2022-11-25T13:21:01.643Z,11.2
2022-11-25T13:22:01.229Z,11.2
2022-11-25T13:23:01.816Z,11.2
2022-11-25T13:24:01.401Z,11.1
2022-11-25T13:25:00.991Z,11
2022-11-25T13:26:01.544Z,11
2022-11-25T13:27:01.127Z,11
2022-11-25T13:28:01.711Z,11
2022-11-25T13:29:01.318Z,11
2022-11-25T13:30:01.900Z,11.1
2022-11-25T13:31:01.542Z,11
2022-11-25T13:32:01.127Z,11
2022-11-25T13:33:01.664Z,11
2022-11-25T13:34:01.243Z,11
2022-11-25T13:35:01.820Z,11
2022-11-25T13:36:01.419Z,11
2022-11-25T13:37:00.972Z,10.9
2022-11-25T13:38:01.546Z,11
2022-11-25T13:39:01.129Z,11
2022-11-25T13:40:01.711Z,11
2022-11-25T13:41:01.317Z,11
2022-11-25T13:42:01.879Z,11
2022-11-25T13:43:01.463Z,11
2022-11-25T13:44:02.575Z,11
2022-11-25T13:45:01.234Z,11.1